Time;durP1;ratioP1;P1;durP2;ratioP2;P2;SDS_P1;SDS_P2;PMS_P1;PMS_P2;Temp;Humidity;BMP_temperature;BMP_pressure;BME280_temperature;BME280_humidity;BME280_pressure;Samples;Min_cycle;Max_cycle;Signal;HPM_P1;HPM_P2
2021/06/04 00:01:20;;;;;;;7.25;5.78;;;20.10;81.40;;;;;;5095627;28;20035;-75
2021/06/04 00:03:48;;;;;;;8.38;6.72;;;20.10;81.30;;;;;;5111226;27;20047;-75
2021/06/04 00:06:16;;;;;;;10.18;7.57;;;20.10;81.40;;;;;;5097217;28;20039;-74
2021/06/04 00:08:43;;;;;;;9.48;6.72;;;20.10;81.40;;;;;;5083993;28;20040;-75
2021/06/04 00:11:15;;;;;;;8.75;6.30;;;20.00;81.30;;;;;;5113418;28;20035;-74
2021/06/04 00:14:05;;;;;;;8.63;6.50;;;20.00;81.60;;;;;;5111312;28;20043;-74
2021/06/04 00:16:39;;;;;;;9.73;7.60;;;20.00;81.30;;;;;;5094004;28;20040;-74
2021/06/04 00:19:15;;;;;;;8.77;6.57;;;19.90;82.00;;;;;;5096802;28;20068;-75
2021/06/04 00:21:49;;;;;;;9.98;6.93;;;19.90;81.40;;;;;;5106395;28;20056;-75
2021/06/04 00:24:17;;;;;;;10.57;7.00;;;19.80;81.50;;;;;;5112336;28;20039;-74
2021/06/04 00:26:46;;;;;;;13.63;8.88;;;19.80;81.50;;;;;;5112074;28;20054;-74
2021/06/04 00:29:15;;;;;;;11.13;8.35;;;19.80;81.60;;;;;;5093655;28;20035;-74
2021/06/04 00:31:45;;;;;;;9.27;7.57;;;19.80;81.70;;;;;;5111198;28;20092;-74
2021/06/04 00:34:14;;;;;;;9.52;7.72;;;19.70;81.70;;;;;;5081971;28;20039;-75
2021/06/04 00:36:42;;;;;;;12.13;8.95;;;19.80;81.80;;;;;;5095279;28;20404;-74
2021/06/04 00:39:11;;;;;;;9.73;7.47;;;19.80;81.80;;;;;;5110897;28;20101;-74
2021/06/04 00:41:51;;;;;;;11.52;8.77;;;19.70;81.80;;;;;;5109624;28;20047;-76
2021/06/04 00:44:20;;;;;;;10.32;8.32;;;19.70;81.90;;;;;;5093501;28;21551;-75
2021/06/04 00:46:47;;;;;;;10.52;7.85;;;19.80;81.90;;;;;;5110501;28;20028;-75
2021/06/04 00:49:15;;;;;;;10.70;8.07;;;19.80;81.90;;;;;;5111843;28;20045;-75
2021/06/04 00:51:46;;;;;;;10.68;7.43;;;19.80;81.90;;;;;;5103744;28;20056;-75
2021/06/04 00:54:14;;;;;;;10.15;7.80;;;19.80;81.90;;;;;;5093100;28;20044;-75
2021/06/04 00:56:45;;;;;;;11.50;8.15;;;19.80;81.90;;;;;;5090317;28;20104;-75
2021/06/04 00:59:13;;;;;;;13.95;9.60;;;19.80;81.90;;;;;;5093790;28;20531;-74
2021/06/04 01:01:41;;;;;;;10.75;7.70;;;19.80;81.90;;;;;;5091975;28;20367;-75
2021/06/04 01:04:13;;;;;;;10.70;7.85;;;19.80;81.90;;;;;;5093677;28;20459;-75
2021/06/04 01:06:47;;;;;;;9.82;7.47;;;19.80;81.90;;;;;;5092422;28;20122;-75
2021/06/04 01:09:33;;;;;;;11.80;8.35;;;19.90;81.90;;;;;;5104475;28;20097;-74
2021/06/04 01:12:24;;;;;;;14.75;8.95;;;19.90;81.80;;;;;;5092150;28;20044;-74
2021/06/04 01:15:20;;;;;;;12.10;8.80;;;19.90;81.80;;;;;;5112817;28;20043;-75
2021/06/04 01:17:56;;;;;;;13.02;8.82;;;19.80;81.70;;;;;;5091692;28;20138;-75
2021/06/04 01:20:36;;;;;;;15.05;10.07;;;19.80;81.80;;;;;;5094451;28;20079;-75
2021/06/04 01:23:29;;;;;;;16.10;12.05;;;19.70;81.80;;;;;;5089198;28;20491;-75
2021/06/04 01:25:56;;;;;;;16.08;10.68;;;19.70;81.90;;;;;;5092134;28;20043;-75
2021/06/04 01:28:33;;;;;;;12.60;9.55;;;19.60;81.90;;;;;;5092166;28;20040;-74
2021/06/04 01:31:04;;;;;;;11.95;8.50;;;19.60;82.00;;;;;;5093495;28;20116;-75
2021/06/04 01:33:50;;;;;;;14.73;9.88;;;19.70;82.00;;;;;;5092590;28;20035;-74
2021/06/04 01:36:30;;;;;;;13.35;9.30;;;19.60;82.00;;;;;;5093832;28;20043;-74
2021/06/04 01:39:00;;;;;;;13.27;9.32;;;19.60;82.00;;;;;;5110440;28;20426;-75
2021/06/04 01:41:31;;;;;;;13.15;9.38;;;19.50;82.00;;;;;;5094636;28;20039;-75
2021/06/04 01:44:05;;;;;;;13.82;9.98;;;19.50;82.10;;;;;;5074230;28;20047;-74
2021/06/04 01:46:37;;;;;;;14.88;10.77;;;19.60;82.00;;;;;;5093967;28;20036;-75
2021/06/04 01:49:12;;;;;;;13.35;9.95;;;19.50;82.00;;;;;;5102621;28;20052;-75
2021/06/04 01:51:49;;;;;;;13.70;9.48;;;19.50;82.10;;;;;;5103258;28;20372;-75
2021/06/04 01:54:43;;;;;;;14.88;9.95;;;19.50;82.10;;;;;;5075398;28;20044;-75
2021/06/04 01:57:21;;;;;;;13.52;9.75;;;19.50;82.10;;;;;;5088486;28;20050;-74
2021/06/04 01:59:52;;;;;;;13.27;9.32;;;19.40;82.20;;;;;;5090240;28;20050;-75
2021/06/04 02:02:40;;;;;;;14.05;9.57;;;19.40;82.30;;;;;;5087295;28;20122;-75
2021/06/04 02:05:15;;;;;;;13.32;9.30;;;19.30;82.40;;;;;;5078217;28;20158;-71
2021/06/04 02:07:44;;;;;;;13.10;9.30;;;19.30;82.50;;;;;;5092031;28;20051;-71
2021/06/04 02:10:22;;;;;;;15.95;10.02;;;19.30;82.60;;;;;;5092794;28;20055;-71
2021/06/04 02:12:51;;;;;;;13.07;8.95;;;19.20;82.60;;;;;;5088926;28;20120;-71
2021/06/04 02:15:33;;;;;;;16.38;10.95;;;19.20;82.60;;;;;;5066903;28;20384;-71
2021/06/04 02:18:08;;;;;;;16.63;11.15;;;19.20;82.70;;;;;;5088846;28;20126;-71
2021/06/04 02:20:59;;;;;;;14.45;10.50;;;19.10;82.60;;;;;;5091162;28;20050;-71
2021/06/04 02:23:41;;;;;;;18.20;11.20;;;19.10;82.60;;;;;;5086249;28;20043;-71
2021/06/04 02:26:18;;;;;;;15.00;10.30;;;19.10;82.70;;;;;;5105295;28;20495;-71
2021/06/04 02:28:55;;;;;;;18.23;12.18;;;19.00;82.60;;;;;;5083374;28;20051;-71
2021/06/04 02:31:51;;;;;;;17.23;11.70;;;19.00;82.80;;;;;;5092477;28;20040;-70
2021/06/04 02:34:43;;;;;;;19.67;12.43;;;19.00;82.70;;;;;;5089645;28;20382;-70
2021/06/04 02:37:39;;;;;;;18.13;11.32;;;18.90;82.70;;;;;;5088021;28;20483;-70
2021/06/04 02:40:06;;;;;;;17.75;12.00;;;18.90;82.80;;;;;;5066005;28;20515;-71
2021/06/04 02:42:40;;;;;;;16.35;11.38;;;18.80;82.90;;;;;;5089905;28;20043;-70
2021/06/04 02:45:07;;;;;;;16.75;11.80;;;18.80;82.90;;;;;;5108061;28;20036;-71
2021/06/04 02:47:48;;;;;;;16.23;10.30;;;18.80;83.00;;;;;;5091240;28;20073;-71
2021/06/04 02:50:28;;;;;;;20.00;12.13;;;18.80;83.00;;;;;;5087527;28;20051;-71
2021/06/04 02:53:20;;;;;;;20.13;12.73;;;18.70;83.10;;;;;;5108374;28;20032;-71
2021/06/04 02:56:06;;;;;;;17.97;12.17;;;18.70;83.10;;;;;;5082053;28;20457;-71
2021/06/04 02:58:38;;;;;;;18.55;13.02;;;18.70;83.20;;;;;;5092033;28;20350;-71
2021/06/04 03:01:13;;;;;;;24.10;15.18;;;18.60;83.30;;;;;;5088765;28;20092;-71
2021/06/04 03:03:47;;;;;;;19.77;12.63;;;18.50;84.10;;;;;;5087695;28;20052;-71
2021/06/04 03:06:17;;;;;;;19.65;12.45;;;18.50;83.50;;;;;;5084523;28;20037;-71
2021/06/04 03:08:45;;;;;;;17.58;12.95;;;18.50;83.50;;;;;;5091472;28;20050;-71
2021/06/04 03:11:13;;;;;;;19.88;12.73;;;18.50;83.50;;;;;;5099517;28;20395;-71
2021/06/04 03:13:42;;;;;;;21.15;13.00;;;18.50;83.50;;;;;;5090549;28;20155;-71
2021/06/04 03:16:17;;;;;;;24.23;15.73;;;18.50;83.60;;;;;;5071232;28;20046;-71
2021/06/04 03:18:53;;;;;;;23.17;15.35;;;18.50;83.70;;;;;;5110275;28;20184;-71
2021/06/04 03:21:25;;;;;;;19.67;13.52;;;18.50;83.70;;;;;;5090093;28;20052;-71
2021/06/04 03:23:55;;;;;;;16.02;12.48;;;18.50;83.70;;;;;;5078169;28;20405;-71
2021/06/04 03:26:26;;;;;;;20.65;13.25;;;18.40;83.70;;;;;;5108513;28;20099;-71
2021/06/04 03:28:58;;;;;;;17.55;12.27;;;18.40;83.80;;;;;;5108295;28;20039;-70
2021/06/04 03:31:28;;;;;;;18.08;11.90;;;18.40;83.80;;;;;;5087316;28;20127;-70
2021/06/04 03:33:59;;;;;;;16.52;11.48;;;18.40;83.90;;;;;;5082573;28;20054;-70
2021/06/04 03:36:31;;;;;;;16.88;11.32;;;18.40;83.90;;;;;;5073962;28;20036;-70
2021/06/04 03:39:00;;;;;;;17.50;11.23;;;18.30;83.90;;;;;;5082545;28;20047;-70
2021/06/04 03:41:35;;;;;;;17.85;11.15;;;18.30;84.00;;;;;;5106725;28;20031;-70
2021/06/04 03:44:10;;;;;;;16.25;10.82;;;18.30;84.00;;;;;;5085700;28;20035;-70
2021/06/04 03:46:40;;;;;;;13.68;9.55;;;18.20;84.00;;;;;;5088926;28;20035;-70
2021/06/04 03:49:13;;;;;;;15.75;11.10;;;18.20;84.00;;;;;;5085584;28;20031;-71
2021/06/04 03:51:43;;;;;;;16.35;10.57;;;18.20;84.00;;;;;;5083199;28;20093;-71
2021/06/04 03:54:16;;;;;;;17.08;10.45;;;18.20;84.10;;;;;;5106751;28;20031;-71
2021/06/04 03:56:44;;;;;;;14.52;10.43;;;18.20;84.10;;;;;;5101479;28;20487;-71
2021/06/04 03:59:13;;;;;;;15.45;10.63;;;18.20;84.10;;;;;;5089194;28;20131;-71
2021/06/04 04:01:44;;;;;;;18.27;10.60;;;18.20;84.10;;;;;;5103820;28;20036;-71
2021/06/04 04:04:13;;;;;;;16.35;10.82;;;18.20;84.10;;;;;;5107383;28;20097;-71
2021/06/04 04:06:40;;;;;;;17.75;11.65;;;18.20;84.20;;;;;;5074942;28;20044;-71
2021/06/04 04:09:09;;;;;;;16.20;11.77;;;18.20;84.20;;;;;;5104387;28;20842;-71
2021/06/04 04:11:37;;;;;;;17.83;12.13;;;18.20;84.20;;;;;;5091182;28;20039;-71
2021/06/04 04:14:05;;;;;;;13.32;9.90;;;18.20;84.20;;;;;;5083092;28;20036;-71
2021/06/04 04:16:33;;;;;;;13.65;10.23;;;18.20;84.20;;;;;;5111432;28;20089;-71
2021/06/04 04:19:01;;;;;;;13.50;9.32;;;18.20;84.20;;;;;;5092961;28;20138;-71
2021/06/04 04:21:28;;;;;;;15.02;9.77;;;18.20;84.20;;;;;;5110430;28;21897;-70
2021/06/04 04:23:58;;;;;;;16.80;10.75;;;18.20;84.20;;;;;;5093258;28;20046;-71
2021/06/04 04:26:31;;;;;;;14.85;10.35;;;18.20;84.20;;;;;;5110342;28;20092;-71
2021/06/04 04:28:59;;;;;;;17.98;11.02;;;18.20;84.30;;;;;;5091387;28;20044;-71
2021/06/04 04:31:30;;;;;;;14.35;9.77;;;18.30;84.30;;;;;;5109610;28;20032;-71
2021/06/04 04:34:05;;;;;;;13.85;9.30;;;18.30;84.30;;;;;;5113203;28;20479;-71
2021/06/04 04:36:36;;;;;;;15.13;9.82;;;18.30;84.30;;;;;;5111657;28;20062;-71
2021/06/04 04:39:08;;;;;;;14.63;9.75;;;18.30;84.20;;;;;;5108510;28;20376;-71
2021/06/04 04:41:35;;;;;;;14.93;10.70;;;18.30;84.20;;;;;;5094612;28;20537;-71
2021/06/04 04:44:04;;;;;;;14.75;10.43;;;18.30;84.30;;;;;;5093079;28;20039;-71
2021/06/04 04:46:32;;;;;;;13.60;9.27;;;18.30;84.30;;;;;;5075249;28;20043;-71
2021/06/04 04:49:00;;;;;;;14.07;10.00;;;18.30;84.40;;;;;;5105202;28;20481;-71
2021/06/04 04:51:29;;;;;;;14.15;9.60;;;18.40;84.40;;;;;;5090349;28;20487;-71
2021/06/04 04:53:56;;;;;;;13.20;9.25;;;18.40;84.40;;;;;;5108685;28;20066;-71
2021/06/04 04:56:24;;;;;;;13.98;9.63;;;18.40;84.30;;;;;;5085764;28;20059;-70
2021/06/04 04:58:52;;;;;;;15.20;9.88;;;18.50;84.30;;;;;;5107867;28;20044;-71
2021/06/04 05:01:20;;;;;;;13.98;10.07;;;18.50;84.20;;;;;;5108059;28;20104;-71
2021/06/04 05:03:47;;;;;;;16.52;10.70;;;18.50;84.20;;;;;;5093170;28;20143;-71
2021/06/04 05:06:14;;;;;;;13.32;9.43;;;18.50;84.10;;;;;;5093170;28;20043;-71
2021/06/04 05:08:41;;;;;;;17.05;11.43;;;18.50;84.00;;;;;;5093242;28;20027;-71
2021/06/04 05:11:08;;;;;;;16.55;10.45;;;18.50;84.00;;;;;;5084816;28;20546;-71
2021/06/04 05:13:36;;;;;;;13.35;9.20;;;18.60;83.90;;;;;;5087402;28;20043;-71
2021/06/04 05:16:04;;;;;;;14.80;10.50;;;18.60;83.80;;;;;;5088061;28;20032;-71
2021/06/04 05:18:34;;;;;;;17.88;10.40;;;18.60;83.70;;;;;;5091269;28;20120;-71
2021/06/04 05:21:07;;;;;;;16.90;10.10;;;18.70;83.70;;;;;;5090039;28;20118;-71
2021/06/04 05:23:34;;;;;;;14.20;9.93;;;18.80;83.70;;;;;;5107617;28;20035;-71
2021/06/04 05:26:02;;;;;;;16.90;11.18;;;18.90;83.60;;;;;;5084643;28;20039;-71
2021/06/04 05:28:30;;;;;;;14.60;10.00;;;18.90;83.40;;;;;;5109131;28;20032;-71
2021/06/04 05:31:02;;;;;;;15.00;10.77;;;19.00;83.30;;;;;;5104859;28;20052;-71
2021/06/04 05:33:33;;;;;;;14.23;10.40;;;19.20;83.10;;;;;;5103564;28;20063;-71
2021/06/04 05:36:04;;;;;;;12.05;9.05;;;19.20;82.90;;;;;;5102283;28;21964;-71
2021/06/04 05:38:32;;;;;;;14.00;9.77;;;19.30;82.80;;;;;;5101732;28;20040;-71
2021/06/04 05:40:59;;;;;;;13.55;9.23;;;19.30;82.70;;;;;;5103571;28;20126;-70
2021/06/04 05:43:29;;;;;;;15.63;10.38;;;19.40;82.70;;;;;;5102407;28;20827;-70
2021/06/04 05:45:58;;;;;;;13.38;8.57;;;19.40;82.60;;;;;;5102507;28;20039;-70
2021/06/04 05:48:25;;;;;;;12.18;8.75;;;19.40;82.40;;;;;;5102598;28;20118;-70
2021/06/04 05:50:56;;;;;;;15.35;9.43;;;19.50;82.20;;;;;;5103754;28;20036;-70
2021/06/04 05:53:27;;;;;;;11.05;7.35;;;19.50;82.10;;;;;;5103042;28;20055;-70
2021/06/04 05:55:57;;;;;;;12.65;7.82;;;19.60;81.80;;;;;;5068363;28;20097;-74
2021/06/04 05:58:26;;;;;;;13.50;8.75;;;19.80;81.50;;;;;;5089830;28;20039;-75
2021/06/04 06:00:55;;;;;;;12.27;8.18;;;19.90;81.10;;;;;;5108710;28;20051;-75
2021/06/04 06:03:27;;;;;;;10.98;7.30;;;20.00;80.70;;;;;;5088625;28;20093;-75
2021/06/04 06:05:55;;;;;;;11.00;7.35;;;20.20;80.40;;;;;;5103966;28;20051;-75
2021/06/04 06:08:22;;;;;;;13.23;8.77;;;20.30;80.10;;;;;;5083011;28;20176;-75
2021/06/04 06:10:49;;;;;;;13.65;8.48;;;20.30;79.80;;;;;;5102163;28;20039;-75
2021/06/04 06:13:18;;;;;;;11.55;7.80;;;20.30;79.70;;;;;;5102576;28;20032;-75
2021/06/04 06:15:45;;;;;;;11.55;7.45;;;20.30;79.60;;;;;;5102987;27;20040;-75
2021/06/04 06:18:13;;;;;;;12.73;7.88;;;20.30;79.50;;;;;;5103466;28;20533;-76
2021/06/04 06:20:43;;;;;;;11.07;7.60;;;20.40;79.40;;;;;;5105502;28;20039;-75
2021/06/04 06:23:13;;;;;;;9.85;6.88;;;20.40;79.20;;;;;;5075412;28;20040;-75
2021/06/04 06:25:45;;;;;;;11.13;7.20;;;20.40;79.10;;;;;;5103383;28;20647;-75
2021/06/04 06:28:15;;;;;;;9.52;6.68;;;20.40;79.00;;;;;;5089053;28;20028;-76
2021/06/04 06:30:43;;;;;;;10.10;6.82;;;20.50;79.00;;;;;;5093098;28;21448;-75
2021/06/04 06:33:11;;;;;;;10.25;6.05;;;20.60;78.90;;;;;;5108072;28;20039;-75
2021/06/04 06:35:43;;;;;;;9.80;6.20;;;20.80;78.50;;;;;;5104458;28;20040;-75
2021/06/04 06:38:10;;;;;;;9.45;5.63;;;21.00;78.10;;;;;;5096131;28;20914;-75
2021/06/04 06:40:40;;;;;;;10.48;6.60;;;21.10;77.60;;;;;;5092897;28;20462;-75
2021/06/04 06:43:08;;;;;;;12.93;8.35;;;21.30;77.40;;;;;;5093017;28;20532;-75
2021/06/04 06:45:36;;;;;;;13.85;8.30;;;21.30;76.90;;;;;;5092477;28;20391;-75
2021/06/04 06:48:04;;;;;;;12.30;8.02;;;21.40;76.70;;;;;;5108516;28;20039;-77
2021/06/04 06:50:33;;;;;;;13.23;8.55;;;21.40;76.40;;;;;;5084051;28;20043;-76
2021/06/04 06:53:02;;;;;;;11.50;7.88;;;21.50;76.30;;;;;;5083566;28;20066;-75
2021/06/04 06:55:30;;;;;;;10.90;7.65;;;21.60;76.10;;;;;;5111086;28;20035;-75
2021/06/04 06:57:58;;;;;;;9.00;6.63;;;21.70;75.90;;;;;;5060183;28;20051;-75
2021/06/04 07:00:29;;;;;;;9.68;7.05;;;21.80;75.70;;;;;;5111867;28;20080;-75
2021/06/04 07:02:56;;;;;;;7.80;5.60;;;21.90;75.60;;;;;;5111940;28;20093;-75
2021/06/04 07:05:26;;;;;;;11.18;7.05;;;22.00;75.50;;;;;;5110510;28;20441;-76
2021/06/04 07:07:53;;;;;;;9.05;6.70;;;22.10;75.30;;;;;;5062750;28;20085;-76
2021/06/04 07:10:24;;;;;;;13.38;8.65;;;22.10;74.80;;;;;;5069695;28;20051;-75
2021/06/04 07:12:52;;;;;;;11.70;8.48;;;22.20;74.10;;;;;;5108381;28;20109;-77
2021/06/04 07:15:21;;;;;;;11.95;7.63;;;22.10;73.80;;;;;;5092095;28;20036;-77
2021/06/04 07:17:53;;;;;;;9.88;6.80;;;22.20;73.90;;;;;;5092872;28;20486;-77
2021/06/04 07:20:23;;;;;;;8.65;5.75;;;22.20;73.60;;;;;;5093433;28;20042;-76
2021/06/04 07:22:56;;;;;;;8.90;5.85;;;22.30;73.50;;;;;;5091140;28;20081;-75
2021/06/04 07:25:27;;;;;;;8.10;4.95;;;22.50;73.40;;;;;;5093447;28;20071;-75
2021/06/04 07:27:54;;;;;;;9.68;6.50;;;22.60;73.20;;;;;;5069480;28;20486;-76
2021/06/04 07:30:24;;;;;;;9.18;5.72;;;22.70;72.90;;;;;;5111021;28;20036;-76
2021/06/04 07:32:52;;;;;;;8.07;5.55;;;22.80;72.50;;;;;;5093374;28;20044;-75
2021/06/04 07:35:22;;;;;;;6.63;4.47;;;22.90;72.40;;;;;;5112015;28;20062;-76
2021/06/04 07:37:49;;;;;;;6.60;4.60;;;23.00;72.10;;;;;;5093650;28;20035;-76
2021/06/04 07:40:20;;;;;;;8.45;4.82;;;23.10;71.90;;;;;;5111598;28;20040;-76
2021/06/04 07:42:50;;;;;;;6.28;4.53;;;23.20;71.70;;;;;;5094260;28;20066;-76
2021/06/04 07:45:22;;;;;;;7.60;5.07;;;23.30;71.50;;;;;;5093456;28;20031;-77
2021/06/04 07:47:49;;;;;;;5.57;4.05;;;23.40;71.30;;;;;;5094415;28;20043;-77
2021/06/04 07:50:16;;;;;;;6.32;4.55;;;23.40;71.20;;;;;;5116561;28;20089;-77
2021/06/04 07:52:43;;;;;;;7.60;4.57;;;23.30;71.20;;;;;;5115106;28;20039;-76
2021/06/04 07:55:13;;;;;;;7.80;4.55;;;23.20;71.10;;;;;;5110020;27;20101;-74
2021/06/04 07:57:40;;;;;;;7.65;4.93;;;23.10;71.20;;;;;;5106093;28;20056;-75
2021/06/04 08:00:13;;;;;;;7.70;5.35;;;23.00;71.30;;;;;;5101810;28;20225;-75
2021/06/04 08:02:44;;;;;;;5.95;4.35;;;23.00;71.30;;;;;;5108650;27;20048;-75
2021/06/04 08:05:13;;;;;;;6.40;4.15;;;22.90;71.40;;;;;;5111244;28;20587;-75
2021/06/04 08:07:41;;;;;;;7.55;4.82;;;22.90;71.40;;;;;;5089429;28;20115;-74
2021/06/04 08:10:09;;;;;;;6.63;4.70;;;22.90;71.90;;;;;;5072820;28;20476;-76
2021/06/04 08:12:37;;;;;;;6.00;3.92;;;22.90;71.10;;;;;;5081497;28;20044;-77
2021/06/04 08:15:14;;;;;;;6.35;4.30;;;22.90;71.10;;;;;;5106160;28;20028;-73
2021/06/04 08:17:42;;;;;;;8.00;4.18;;;23.00;70.80;;;;;;5112688;28;20043;-77
2021/06/04 08:20:11;;;;;;;5.13;3.67;;;22.90;70.80;;;;;;5091967;28;20122;-77
2021/06/04 08:22:42;;;;;;;7.97;5.25;;;23.10;70.70;;;;;;5109491;28;20035;-76
2021/06/04 08:25:11;;;;;;;8.07;5.60;;;23.30;70.20;;;;;;5102668;28;20062;-76
2021/06/04 08:27:39;;;;;;;8.40;5.45;;;23.50;69.90;;;;;;5102380;28;20028;-75
2021/06/04 08:30:09;;;;;;;8.85;6.75;;;23.60;69.60;;;;;;5101223;28;20861;-75
2021/06/04 08:32:36;;;;;;;9.45;6.97;;;23.50;69.40;;;;;;5093558;28;20063;-74
2021/06/04 08:35:05;;;;;;;8.45;6.18;;;23.50;69.50;;;;;;5108978;28;20050;-77
2021/06/04 08:37:32;;;;;;;8.45;5.70;;;23.40;69.50;;;;;;5111962;28;20437;-76
2021/06/04 08:40:00;;;;;;;7.03;4.93;;;23.40;69.50;;;;;;5096522;28;20109;-76
2021/06/04 08:42:34;;;;;;;7.35;5.00;;;23.50;69.40;;;;;;5096043;28;20039;-78
2021/06/04 08:45:04;;;;;;;6.60;4.40;;;23.70;69.80;;;;;;5084255;28;20501;-76
2021/06/04 08:47:34;;;;;;;7.47;5.03;;;23.80;68.90;;;;;;5114295;28;20118;-78
2021/06/04 08:50:23;;;;;;;8.73;6.18;;;24.00;68.70;;;;;;5114996;28;20044;-75
2021/06/04 08:53:14;;;;;;;10.07;7.40;;;24.00;68.20;;;;;;5092399;28;20048;-77
2021/06/04 08:55:54;;;;;;;11.80;6.93;;;24.00;68.30;;;;;;5092029;28;20089;-75
2021/06/04 08:58:52;;;;;;;8.32;5.55;;;23.90;68.50;;;;;;5114299;28;20052;-76
2021/06/04 09:01:30;;;;;;;8.75;6.15;;;23.90;68.70;;;;;;5084923;28;20502;-75
2021/06/04 09:04:03;;;;;;;6.43;4.63;;;23.90;68.90;;;;;;5112892;28;20027;-76
2021/06/04 09:07:05;;;;;;;6.82;4.90;;;23.90;68.90;;;;;;5111318;28;20039;-76
2021/06/04 09:09:44;;;;;;;7.35;4.90;;;24.00;68.80;;;;;;5108169;28;20467;-76
2021/06/04 09:12:43;;;;;;;6.82;5.18;;;24.20;68.50;;;;;;5114311;28;20047;-76
2021/06/04 09:15:12;;;;;;;8.70;5.20;;;24.60;67.80;;;;;;5113116;28;20047;-76
2021/06/04 09:17:42;;;;;;;6.75;5.10;;;24.90;67.40;;;;;;5113765;28;20039;-76
2021/06/04 09:20:15;;;;;;;8.68;6.80;;;25.20;67.00;;;;;;5095945;28;20055;-76
2021/06/04 09:22:46;;;;;;;7.45;5.13;;;25.40;66.20;;;;;;5114317;28;20047;-76
2021/06/04 09:25:18;;;;;;;6.18;5.00;;;25.60;65.90;;;;;;5113667;28;20044;-77
2021/06/04 09:27:49;;;;;;;7.03;4.40;;;25.80;65.30;;;;;;5111182;28;20035;-76
2021/06/04 09:30:34;;;;;;;6.37;4.77;;;25.80;65.10;;;;;;5113686;28;20059;-77
2021/06/04 09:33:22;;;;;;;8.32;5.03;;;25.80;64.80;;;;;;5095412;28;20289;-76
2021/06/04 09:36:14;;;;;;;5.25;3.80;;;25.90;64.50;;;;;;5083893;28;20479;-76
2021/06/04 09:39:33;;;;;;;5.72;4.45;;;26.10;64.50;;;;;;5113197;28;20398;-77
2021/06/04 09:42:26;;;;;;;5.82;4.15;;;26.20;63.90;;;;;;5103187;28;20113;-75
2021/06/04 09:45:30;;;;;;;6.20;3.90;;;26.30;63.80;;;;;;5108845;28;20073;-76
2021/06/04 09:48:05;;;;;;;4.40;3.42;;;26.30;63.60;;;;;;5077447;28;20051;-76
2021/06/04 09:50:46;;;;;;;4.80;3.60;;;26.20;63.80;;;;;;5088245;28;20047;-77
2021/06/04 09:53:19;;;;;;;5.15;3.67;;;26.10;63.70;;;;;;5112840;28;20039;-77
2021/06/04 09:55:49;;;;;;;4.60;2.90;;;26.10;63.80;;;;;;5111978;28;20051;-76
2021/06/04 09:58:18;;;;;;;4.55;2.92;;;26.10;63.80;;;;;;5093622;28;20047;-77
2021/06/04 10:00:54;;;;;;;4.65;2.85;;;26.10;63.90;;;;;;5112082;28;20044;-76
2021/06/04 10:03:28;;;;;;;5.28;3.45;;;26.10;63.70;;;;;;5093437;28;20047;-78
2021/06/04 10:06:05;;;;;;;3.75;2.88;;;26.20;63.40;;;;;;5109201;28;20107;-76
2021/06/04 10:08:45;;;;;;;5.70;4.07;;;26.10;63.40;;;;;;5112301;28;20089;-76
2021/06/04 10:11:21;;;;;;;4.35;2.97;;;26.10;63.40;;;;;;5087842;28;20036;-76
2021/06/04 10:14:07;;;;;;;4.32;3.03;;;26.10;63.30;;;;;;5108792;28;20503;-74
2021/06/04 10:19:33;;;;;;;6.38;3.92;;;26.30;63.10;;;;;;5108048;28;20043;-76
2021/06/04 10:22:31;;;;;;;6.40;4.28;;;26.60;62.80;;;;;;5094260;28;20051;-76
2021/06/04 10:25:01;;;;;;;6.13;4.72;;;26.80;62.50;;;;;;5101058;28;20047;-77
2021/06/04 10:27:28;;;;;;;6.60;4.50;;;26.80;62.40;;;;;;5088321;28;20148;-78
2021/06/04 10:30:10;;;;;;;4.57;3.67;;;26.70;62.30;;;;;;5094490;28;20444;-78
2021/06/04 10:32:54;;;;;;;4.85;3.58;;;26.80;62.40;;;;;;5094487;28;20059;-78
2021/06/04 10:35:38;;;;;;;4.85;3.45;;;26.90;62.30;;;;;;5076470;28;20031;-77
2021/06/04 10:38:20;;;;;;;4.82;3.70;;;27.00;62.10;;;;;;5112472;28;20100;-77
2021/06/04 10:41:00;;;;;;;4.18;3.42;;;27.10;62.00;;;;;;5091184;28;20043;-78
2021/06/04 10:43:49;;;;;;;5.13;3.42;;;27.20;61.90;;;;;;5111873;28;20040;-78
2021/06/04 10:46:23;;;;;;;5.50;4.35;;;27.30;61.80;;;;;;5078069;28;20514;-77
2021/06/04 10:49:28;;;;;;;4.93;3.90;;;27.20;61.40;;;;;;5111018;28;20035;-78
2021/06/04 10:52:14;;;;;;;6.93;4.15;;;27.20;61.50;;;;;;5104874;28;20057;-75
2021/06/04 10:54:47;;;;;;;7.13;3.78;;;27.30;61.50;;;;;;5110187;28;20513;-77
2021/06/04 10:57:32;;;;;;;4.47;3.63;;;27.30;61.50;;;;;;5089291;28;20059;-77
2021/06/04 11:00:28;;;;;;;6.78;4.03;;;27.40;61.30;;;;;;5111764;28;20043;-76
2021/06/04 11:03:42;;;;;;;5.10;3.30;;;27.50;61.10;;;;;;5109672;28;20085;-74
2021/06/04 11:06:36;;;;;;;5.10;3.90;;;27.60;61.20;;;;;;5026538;28;20445;-75
2021/06/04 11:09:21;;;;;;;4.47;3.45;;;27.60;61.10;;;;;;5110106;28;20035;-74
2021/06/04 11:12:01;;;;;;;5.28;4.13;;;27.70;61.20;;;;;;5106429;28;20498;-74
2021/06/04 11:14:45;;;;;;;5.00;3.95;;;27.80;61.10;;;;;;5100225;28;20038;-78
2021/06/04 11:17:27;;;;;;;5.43;4.15;;;27.90;60.90;;;;;;5079256;28;20403;-75
2021/06/04 11:20:28;;;;;;;5.30;4.35;;;28.10;60.80;;;;;;5102531;28;20104;-75
2021/06/04 11:23:26;;;;;;;5.15;3.78;;;28.20;60.50;;;;;;5089093;28;20108;-75
2021/06/04 11:26:13;;;;;;;5.35;3.95;;;28.20;60.40;;;;;;5095975;28;20047;-75
2021/06/04 11:28:53;;;;;;;7.95;4.90;;;28.40;60.20;;;;;;5098117;28;20115;-75
2021/06/04 11:31:28;;;;;;;5.60;4.25;;;28.30;60.00;;;;;;5115827;28;20035;-76
2021/06/04 11:34:00;;;;;;;5.70;4.78;;;28.20;60.30;;;;;;5114245;28;20047;-76
2021/06/04 11:36:30;;;;;;;5.37;4.60;;;28.10;59.80;;;;;;5098071;28;20494;-76
2021/06/04 11:39:02;;;;;;;5.38;4.18;;;28.10;59.70;;;;;;5115075;28;20048;-76
2021/06/04 11:41:41;;;;;;;4.57;3.72;;;28.20;59.60;;;;;;5097857;28;20048;-75
2021/06/04 11:44:19;;;;;;;4.10;3.40;;;28.40;59.20;;;;;;5103044;28;20039;-75
2021/06/04 11:47:21;;;;;;;4.70;4.13;;;28.50;59.00;;;;;;5096884;28;20035;-76
2021/06/04 11:49:55;;;;;;;5.20;4.15;;;28.80;58.60;;;;;;5089839;28;20035;-75
2021/06/04 11:52:43;;;;;;;5.57;4.78;;;29.10;58.40;;;;;;5108413;28;20035;-75
2021/06/04 11:55:12;;;;;;;5.88;4.32;;;29.30;57.90;;;;;;5114943;28;20036;-75
2021/06/04 11:57:48;;;;;;;4.00;3.45;;;29.20;57.90;;;;;;5086069;28;20127;-74
2021/06/04 12:00:25;;;;;;;4.85;3.60;;;29.20;58.00;;;;;;5092972;28;20124;-75
2021/06/04 12:03:07;;;;;;;5.68;3.70;;;29.10;57.90;;;;;;5104971;28;20387;-78
2021/06/04 12:05:40;;;;;;;4.95;4.38;;;28.90;58.30;;;;;;5114148;28;20075;-76
2021/06/04 12:08:32;;;;;;;4.22;3.47;;;28.80;58.10;;;;;;5097347;28;20048;-76
2021/06/04 12:11:07;;;;;;;4.97;4.18;;;29.00;58.20;;;;;;5092350;28;20516;-76
2021/06/04 12:13:50;;;;;;;4.45;3.85;;;29.40;57.40;;;;;;5113817;28;20447;-77
2021/06/04 12:16:26;;;;;;;5.45;4.32;;;29.90;56.80;;;;;;5115770;28;20023;-76
2021/06/04 12:18:59;;;;;;;5.75;3.67;;;30.60;56.00;;;;;;5097083;28;20047;-75
2021/06/04 12:21:43;;;;;;;4.68;3.63;;;31.20;55.20;;;;;;5109331;28;20118;-76
2021/06/04 12:24:22;;;;;;;4.38;3.42;;;32.00;54.10;;;;;;5109135;28;20043;-77
2021/06/04 12:27:08;;;;;;;6.10;3.22;;;32.30;53.40;;;;;;5114632;28;20517;-77
2021/06/04 12:29:50;;;;;;;5.57;3.45;;;31.80;53.30;;;;;;5114066;28;20046;-75
2021/06/04 12:32:38;;;;;;;4.20;3.30;;;31.30;53.80;;;;;;5102428;28;20566;-75
2021/06/04 12:35:07;;;;;;;5.10;3.65;;;30.80;54.40;;;;;;5093591;28;20042;-75
2021/06/04 12:37:40;;;;;;;4.88;3.45;;;30.60;54.40;;;;;;5100240;28;20043;-75
2021/06/04 12:40:28;;;;;;;4.68;3.60;;;30.40;54.80;;;;;;5095392;28;20050;-76
2021/06/04 12:43:14;;;;;;;4.78;3.90;;;30.40;54.40;;;;;;5108770;28;20052;-76
2021/06/04 12:45:44;;;;;;;5.25;3.83;;;30.10;54.80;;;;;;5096112;28;20058;-75
2021/06/04 12:48:11;;;;;;;4.85;3.30;;;29.80;55.30;;;;;;5095993;28;20458;-74
2021/06/04 12:50:47;;;;;;;4.82;3.35;;;29.50;55.80;;;;;;5114430;28;20036;-75
2021/06/04 12:53:20;;;;;;;4.35;3.30;;;29.20;56.10;;;;;;5114660;28;20063;-75
2021/06/04 12:55:51;;;;;;;4.22;2.85;;;29.00;56.50;;;;;;5078853;28;20035;-75
2021/06/04 12:58:24;;;;;;;5.10;3.15;;;28.70;56.70;;;;;;5114457;28;20058;-74
2021/06/04 13:00:52;;;;;;;4.38;2.65;;;28.60;56.90;;;;;;5074764;28;20047;-75
2021/06/04 13:03:26;;;;;;;4.30;3.28;;;28.50;57.10;;;;;;5101646;28;20047;-75
2021/06/04 13:05:55;;;;;;;4.72;3.33;;;28.40;57.10;;;;;;5088240;28;20048;-75
2021/06/04 13:08:33;;;;;;;5.63;3.45;;;28.40;57.00;;;;;;5101121;28;20093;-75
2021/06/04 13:11:02;;;;;;;4.38;3.35;;;28.50;56.70;;;;;;5094396;28;20482;-75
2021/06/04 13:13:38;;;;;;;4.53;3.38;;;29.10;56.20;;;;;;5101334;28;20060;-77
2021/06/04 13:16:26;;;;;;;5.20;3.65;;;29.40;55.60;;;;;;5095673;28;20751;-78
2021/06/04 13:18:56;;;;;;;4.25;3.03;;;30.70;54.20;;;;;;5092916;28;20383;-78
2021/06/04 13:21:34;;;;;;;4.53;3.33;;;31.30;53.30;;;;;;5114041;28;20043;-78